sensor_id;sensor_type;location;lat;lon;timestamp;P1;durP1;ratioP1;P2;durP2;ratioP2
26303;SDS011;57113;48.680;8.890;2022-08-01T00:01:22;1.30;;;1.10;;
26303;SDS011;57113;48.680;8.890;2022-08-01T00:03:48;1.40;;;1.05;;
26303;SDS011;57113;48.680;8.890;2022-08-01T00:06:14;1.40;;;1.00;;
26303;SDS011;57113;48.680;8.890;2022-08-01T00:08:39;1.02;;;0.90;;
26303;SDS011;57113;48.680;8.890;2022-08-01T00:11:05;2.28;;;1.30;;
26303;SDS011;57113;48.680;8.890;2022-08-01T00:13:31;1.92;;;1.17;;
26303;SDS011;57113;48.680;8.890;2022-08-01T00:15:56;1.75;;;1.00;;
26303;SDS011;57113;48.680;8.890;2022-08-01T00:18:22;1.27;;;1.10;;
26303;SDS011;57113;48.680;8.890;2022-08-01T00:20:48;2.28;;;1.30;;
26303;SDS011;57113;48.680;8.890;2022-08-01T00:23:13;1.35;;;1.10;;
26303;SDS011;57113;48.680;8.890;2022-08-01T00:25:39;1.50;;;1.35;;
26303;SDS011;57113;48.680;8.890;2022-08-01T00:28:05;4.03;;;1.20;;
26303;SDS011;57113;48.680;8.890;2022-08-01T00:30:33;1.13;;;1.02;;
26303;SDS011;57113;48.680;8.890;2022-08-01T00:32:59;1.35;;;1.17;;
26303;SDS011;57113;48.680;8.890;2022-08-01T00:35:25;1.33;;;1.10;;
26303;SDS011;57113;48.680;8.890;2022-08-01T00:37:51;1.48;;;1.20;;
26303;SDS011;57113;48.680;8.890;2022-08-01T00:40:17;1.52;;;1.23;;
26303;SDS011;57113;48.680;8.890;2022-08-01T00:42:43;1.42;;;1.33;;
26303;SDS011;57113;48.680;8.890;2022-08-01T00:45:09;2.60;;;1.17;;
26303;SDS011;57113;48.680;8.890;2022-08-01T00:47:35;2.80;;;1.30;;
26303;SDS011;57113;48.680;8.890;2022-08-01T00:50:00;2.47;;;1.23;;
26303;SDS011;57113;48.680;8.890;2022-08-01T00:52:29;2.25;;;1.30;;
26303;SDS011;57113;48.680;8.890;2022-08-01T00:54:55;1.13;;;1.02;;
26303;SDS011;57113;48.680;8.890;2022-08-01T00:57:21;2.42;;;1.33;;
26303;SDS011;57113;48.680;8.890;2022-08-01T00:59:46;1.50;;;1.30;;
26303;SDS011;57113;48.680;8.890;2022-08-01T01:02:13;2.15;;;1.13;;
26303;SDS011;57113;48.680;8.890;2022-08-01T01:04:38;3.17;;;1.48;;
26303;SDS011;57113;48.680;8.890;2022-08-01T01:12:44;2.05;;;1.40;;
26303;SDS011;57113;48.680;8.890;2022-08-01T01:17:47;1.75;;;1.20;;
26303;SDS011;57113;48.680;8.890;2022-08-01T01:20:18;1.35;;;1.10;;
26303;SDS011;57113;48.680;8.890;2022-08-01T01:25:38;2.08;;;1.38;;
26303;SDS011;57113;48.680;8.890;2022-08-01T01:31:00;1.55;;;1.25;;
26303;SDS011;57113;48.680;8.890;2022-08-01T01:33:31;1.95;;;1.40;;
26303;SDS011;57113;48.680;8.890;2022-08-01T01:36:01;1.65;;;1.30;;
26303;SDS011;57113;48.680;8.890;2022-08-01T01:38:34;1.37;;;1.20;;
26303;SDS011;57113;48.680;8.890;2022-08-01T01:41:02;2.58;;;1.40;;
26303;SDS011;57113;48.680;8.890;2022-08-01T01:43:30;1.80;;;1.10;;
26303;SDS011;57113;48.680;8.890;2022-08-01T01:45:58;2.42;;;1.33;;
26303;SDS011;57113;48.680;8.890;2022-08-01T01:48:24;1.55;;;1.45;;
26303;SDS011;57113;48.680;8.890;2022-08-01T01:50:52;1.73;;;1.17;;
26303;SDS011;57113;48.680;8.890;2022-08-01T01:53:20;3.05;;;1.20;;
26303;SDS011;57113;48.680;8.890;2022-08-01T01:55:48;1.23;;;1.10;;
26303;SDS011;57113;48.680;8.890;2022-08-01T01:58:17;1.60;;;1.40;;
26303;SDS011;57113;48.680;8.890;2022-08-01T02:00:44;1.48;;;1.25;;
26303;SDS011;57113;48.680;8.890;2022-08-01T02:03:12;1.73;;;1.20;;
26303;SDS011;57113;48.680;8.890;2022-08-01T02:05:39;1.40;;;1.25;;
26303;SDS011;57113;48.680;8.890;2022-08-01T02:08:07;1.75;;;1.30;;
26303;SDS011;57113;48.680;8.890;2022-08-01T02:10:35;1.58;;;1.40;;
26303;SDS011;57113;48.680;8.890;2022-08-01T02:13:03;2.60;;;1.30;;
26303;SDS011;57113;48.680;8.890;2022-08-01T02:15:30;2.40;;;1.35;;
26303;SDS011;57113;48.680;8.890;2022-08-01T02:17:58;1.67;;;1.30;;
26303;SDS011;57113;48.680;8.890;2022-08-01T02:20:26;1.70;;;1.40;;
26303;SDS011;57113;48.680;8.890;2022-08-01T02:23:13;1.73;;;1.45;;
26303;SDS011;57113;48.680;8.890;2022-08-01T02:25:46;2.13;;;1.40;;
26303;SDS011;57113;48.680;8.890;2022-08-01T02:28:15;1.50;;;1.23;;
26303;SDS011;57113;48.680;8.890;2022-08-01T02:30:50;2.35;;;1.30;;
26303;SDS011;57113;48.680;8.890;2022-08-01T02:33:20;1.35;;;1.23;;
26303;SDS011;57113;48.680;8.890;2022-08-01T02:35:54;1.60;;;1.38;;
26303;SDS011;57113;48.680;8.890;2022-08-01T02:38:23;2.13;;;1.38;;
26303;SDS011;57113;48.680;8.890;2022-08-01T02:40:52;1.52;;;1.42;;
26303;SDS011;57113;48.680;8.890;2022-08-01T02:43:23;2.40;;;1.35;;
26303;SDS011;57113;48.680;8.890;2022-08-01T02:45:54;1.92;;;1.45;;
26303;SDS011;57113;48.680;8.890;2022-08-01T02:48:25;1.50;;;1.25;;
26303;SDS011;57113;48.680;8.890;2022-08-01T02:50:52;2.13;;;1.30;;
26303;SDS011;57113;48.680;8.890;2022-08-01T02:53:21;1.48;;;1.30;;
26303;SDS011;57113;48.680;8.890;2022-08-01T02:55:49;1.42;;;1.33;;
26303;SDS011;57113;48.680;8.890;2022-08-01T02:58:16;1.95;;;1.20;;
26303;SDS011;57113;48.680;8.890;2022-08-01T03:00:44;1.67;;;1.35;;
26303;SDS011;57113;48.680;8.890;2022-08-01T03:03:11;2.08;;;1.42;;
26303;SDS011;57113;48.680;8.890;2022-08-01T03:05:38;1.27;;;1.17;;
26303;SDS011;57113;48.680;8.890;2022-08-01T03:08:05;1.70;;;1.50;;
26303;SDS011;57113;48.680;8.890;2022-08-01T03:10:33;1.83;;;1.40;;
26303;SDS011;57113;48.680;8.890;2022-08-01T03:13:01;3.35;;;1.45;;
26303;SDS011;57113;48.680;8.890;2022-08-01T03:15:31;1.67;;;1.30;;
26303;SDS011;57113;48.680;8.890;2022-08-01T03:17:59;1.52;;;1.30;;
26303;SDS011;57113;48.680;8.890;2022-08-01T03:20:26;2.65;;;1.40;;
26303;SDS011;57113;48.680;8.890;2022-08-01T03:22:54;1.70;;;1.30;;
26303;SDS011;57113;48.680;8.890;2022-08-01T03:25:23;1.60;;;1.50;;
26303;SDS011;57113;48.680;8.890;2022-08-01T03:27:51;2.20;;;1.58;;
26303;SDS011;57113;48.680;8.890;2022-08-01T03:30:22;1.58;;;1.45;;
26303;SDS011;57113;48.680;8.890;2022-08-01T03:32:49;1.40;;;1.30;;
26303;SDS011;57113;48.680;8.890;2022-08-01T03:35:16;1.38;;;1.27;;
26303;SDS011;57113;48.680;8.890;2022-08-01T03:37:44;2.05;;;1.52;;
26303;SDS011;57113;48.680;8.890;2022-08-01T03:40:25;2.65;;;1.55;;
26303;SDS011;57113;48.680;8.890;2022-08-01T03:42:59;1.55;;;1.40;;
26303;SDS011;57113;48.680;8.890;2022-08-01T03:45:31;1.35;;;1.25;;
26303;SDS011;57113;48.680;8.890;2022-08-01T03:48:02;1.67;;;1.40;;
26303;SDS011;57113;48.680;8.890;2022-08-01T03:50:36;2.05;;;1.45;;
26303;SDS011;57113;48.680;8.890;2022-08-01T03:53:04;1.30;;;1.20;;
26303;SDS011;57113;48.680;8.890;2022-08-01T03:55:34;1.40;;;1.30;;
26303;SDS011;57113;48.680;8.890;2022-08-01T03:58:03;1.38;;;1.20;;
26303;SDS011;57113;48.680;8.890;2022-08-01T04:00:29;1.63;;;1.30;;
26303;SDS011;57113;48.680;8.890;2022-08-01T04:02:55;1.42;;;1.33;;
26303;SDS011;57113;48.680;8.890;2022-08-01T04:05:21;1.52;;;1.38;;
26303;SDS011;57113;48.680;8.890;2022-08-01T04:07:48;1.77;;;1.30;;
26303;SDS011;57113;48.680;8.890;2022-08-01T04:10:20;1.67;;;1.40;;
26303;SDS011;57113;48.680;8.890;2022-08-01T04:12:49;4.18;;;1.60;;
26303;SDS011;57113;48.680;8.890;2022-08-01T04:15:15;2.10;;;1.25;;
26303;SDS011;57113;48.680;8.890;2022-08-01T04:17:41;1.50;;;1.40;;
26303;SDS011;57113;48.680;8.890;2022-08-01T04:20:06;1.60;;;1.40;;
26303;SDS011;57113;48.680;8.890;2022-08-01T04:22:33;2.63;;;1.58;;
26303;SDS011;57113;48.680;8.890;2022-08-01T04:24:58;1.50;;;1.40;;
26303;SDS011;57113;48.680;8.890;2022-08-01T04:27:31;2.38;;;1.40;;
26303;SDS011;57113;48.680;8.890;2022-08-01T04:30:00;1.52;;;1.38;;
26303;SDS011;57113;48.680;8.890;2022-08-01T04:32:27;1.77;;;1.40;;
26303;SDS011;57113;48.680;8.890;2022-08-01T04:34:58;1.77;;;1.40;;
26303;SDS011;57113;48.680;8.890;2022-08-01T04:37:27;1.80;;;1.45;;
26303;SDS011;57113;48.680;8.890;2022-08-01T04:39:55;2.35;;;1.67;;
26303;SDS011;57113;48.680;8.890;2022-08-01T04:42:23;1.63;;;1.40;;
26303;SDS011;57113;48.680;8.890;2022-08-01T04:44:49;1.58;;;1.30;;
26303;SDS011;57113;48.680;8.890;2022-08-01T04:47:15;1.77;;;1.60;;
26303;SDS011;57113;48.680;8.890;2022-08-01T04:49:42;1.67;;;1.58;;
26303;SDS011;57113;48.680;8.890;2022-08-01T04:52:11;2.00;;;1.60;;
26303;SDS011;57113;48.680;8.890;2022-08-01T04:54:37;1.67;;;1.40;;
26303;SDS011;57113;48.680;8.890;2022-08-01T04:57:03;1.55;;;1.45;;
26303;SDS011;57113;48.680;8.890;2022-08-01T04:59:30;2.20;;;1.40;;
26303;SDS011;57113;48.680;8.890;2022-08-01T05:02:09;2.20;;;1.58;;
26303;SDS011;57113;48.680;8.890;2022-08-01T05:04:35;1.58;;;1.48;;
26303;SDS011;57113;48.680;8.890;2022-08-01T05:07:02;1.70;;;1.60;;
26303;SDS011;57113;48.680;8.890;2022-08-01T05:09:28;2.15;;;1.40;;
26303;SDS011;57113;48.680;8.890;2022-08-01T05:11:53;1.98;;;1.40;;
26303;SDS011;57113;48.680;8.890;2022-08-01T05:14:19;1.60;;;1.38;;
26303;SDS011;57113;48.680;8.890;2022-08-01T05:16:46;4.30;;;1.45;;
26303;SDS011;57113;48.680;8.890;2022-08-01T05:19:11;2.05;;;1.50;;
26303;SDS011;57113;48.680;8.890;2022-08-01T05:21:37;2.03;;;1.48;;
26303;SDS011;57113;48.680;8.890;2022-08-01T05:24:04;2.88;;;1.60;;
26303;SDS011;57113;48.680;8.890;2022-08-01T05:26:30;3.20;;;1.75;;
26303;SDS011;57113;48.680;8.890;2022-08-01T05:28:56;4.35;;;1.70;;
26303;SDS011;57113;48.680;8.890;2022-08-01T05:31:21;2.08;;;1.42;;
26303;SDS011;57113;48.680;8.890;2022-08-01T05:33:47;1.83;;;1.67;;
26303;SDS011;57113;48.680;8.890;2022-08-01T05:36:12;1.70;;;1.40;;
26303;SDS011;57113;48.680;8.890;2022-08-01T05:38:38;3.08;;;1.73;;
26303;SDS011;57113;48.680;8.890;2022-08-01T05:41:04;2.55;;;1.90;;
26303;SDS011;57113;48.680;8.890;2022-08-01T05:43:30;1.88;;;1.58;;
26303;SDS011;57113;48.680;8.890;2022-08-01T05:45:56;1.67;;;1.50;;
26303;SDS011;57113;48.680;8.890;2022-08-01T05:48:23;1.85;;;1.60;;
26303;SDS011;57113;48.680;8.890;2022-08-01T05:50:48;1.60;;;1.50;;
26303;SDS011;57113;48.680;8.890;2022-08-01T05:53:14;1.95;;;1.50;;
26303;SDS011;57113;48.680;8.890;2022-08-01T05:55:40;1.70;;;1.60;;
26303;SDS011;57113;48.680;8.890;2022-08-01T05:58:06;2.25;;;1.63;;
26303;SDS011;57113;48.680;8.890;2022-08-01T06:00:31;1.40;;;1.30;;
26303;SDS011;57113;48.680;8.890;2022-08-01T06:02:57;1.88;;;1.58;;
26303;SDS011;57113;48.680;8.890;2022-08-01T06:05:23;3.58;;;1.40;;
26303;SDS011;57113;48.680;8.890;2022-08-01T06:07:48;1.67;;;1.58;;
26303;SDS011;57113;48.680;8.890;2022-08-01T06:10:14;3.92;;;1.50;;
26303;SDS011;57113;48.680;8.890;2022-08-01T06:12:40;3.05;;;1.50;;
26303;SDS011;57113;48.680;8.890;2022-08-01T06:15:05;2.47;;;1.83;;
26303;SDS011;57113;48.680;8.890;2022-08-01T06:17:32;1.55;;;1.30;;
26303;SDS011;57113;48.680;8.890;2022-08-01T06:19:58;2.58;;;1.60;;
26303;SDS011;57113;48.680;8.890;2022-08-01T06:22:24;1.98;;;1.65;;
26303;SDS011;57113;48.680;8.890;2022-08-01T06:24:50;2.20;;;1.60;;
26303;SDS011;57113;48.680;8.890;2022-08-01T06:27:16;1.50;;;1.30;;
26303;SDS011;57113;48.680;8.890;2022-08-01T06:29:41;2.75;;;1.50;;
26303;SDS011;57113;48.680;8.890;2022-08-01T06:32:08;3.20;;;1.80;;
26303;SDS011;57113;48.680;8.890;2022-08-01T06:34:35;2.08;;;1.55;;
26303;SDS011;57113;48.680;8.890;2022-08-01T06:37:01;1.70;;;1.58;;
26303;SDS011;57113;48.680;8.890;2022-08-01T06:39:26;2.35;;;1.40;;
26303;SDS011;57113;48.680;8.890;2022-08-01T06:41:52;1.67;;;1.42;;
26303;SDS011;57113;48.680;8.890;2022-08-01T06:44:18;2.90;;;1.38;;
26303;SDS011;57113;48.680;8.890;2022-08-01T06:46:44;1.73;;;1.35;;
26303;SDS011;57113;48.680;8.890;2022-08-01T06:49:09;3.80;;;1.45;;
26303;SDS011;57113;48.680;8.890;2022-08-01T06:51:35;8.10;;;2.10;;
26303;SDS011;57113;48.680;8.890;2022-08-01T06:54:01;3.70;;;1.52;;
26303;SDS011;57113;48.680;8.890;2022-08-01T06:56:26;2.47;;;1.60;;
26303;SDS011;57113;48.680;8.890;2022-08-01T06:58:52;5.05;;;1.77;;
26303;SDS011;57113;48.680;8.890;2022-08-01T07:01:21;2.50;;;1.70;;
26303;SDS011;57113;48.680;8.890;2022-08-01T07:03:46;3.10;;;1.60;;
26303;SDS011;57113;48.680;8.890;2022-08-01T07:06:12;4.38;;;1.70;;
26303;SDS011;57113;48.680;8.890;2022-08-01T07:08:39;2.95;;;1.70;;
26303;SDS011;57113;48.680;8.890;2022-08-01T07:11:05;3.30;;;1.73;;
26303;SDS011;57113;48.680;8.890;2022-08-01T07:13:31;2.30;;;1.50;;
26303;SDS011;57113;48.680;8.890;2022-08-01T07:15:57;3.08;;;1.70;;
26303;SDS011;57113;48.680;8.890;2022-08-01T07:18:23;4.32;;;1.95;;
26303;SDS011;57113;48.680;8.890;2022-08-01T07:20:49;3.58;;;1.65;;
26303;SDS011;57113;48.680;8.890;2022-08-01T07:23:15;3.67;;;1.77;;
26303;SDS011;57113;48.680;8.890;2022-08-01T07:25:41;1.92;;;1.67;;
26303;SDS011;57113;48.680;8.890;2022-08-01T07:28:07;3.42;;;1.70;;
26303;SDS011;57113;48.680;8.890;2022-08-01T07:30:33;3.35;;;1.52;;
26303;SDS011;57113;48.680;8.890;2022-08-01T07:32:58;4.20;;;1.60;;
26303;SDS011;57113;48.680;8.890;2022-08-01T07:35:24;5.30;;;1.50;;
26303;SDS011;57113;48.680;8.890;2022-08-01T07:37:50;6.32;;;1.42;;
26303;SDS011;57113;48.680;8.890;2022-08-01T07:40:18;5.97;;;1.40;;
26303;SDS011;57113;48.680;8.890;2022-08-01T07:42:44;2.58;;;1.50;;
26303;SDS011;57113;48.680;8.890;2022-08-01T07:45:11;2.45;;;1.50;;
26303;SDS011;57113;48.680;8.890;2022-08-01T07:47:37;1.52;;;1.02;;
26303;SDS011;57113;48.680;8.890;2022-08-01T07:50:03;3.00;;;1.33;;
26303;SDS011;57113;48.680;8.890;2022-08-01T07:52:30;2.20;;;1.25;;
26303;SDS011;57113;48.680;8.890;2022-08-01T07:54:56;1.50;;;1.15;;
26303;SDS011;57113;48.680;8.890;2022-08-01T07:57:23;2.60;;;1.30;;
26303;SDS011;57113;48.680;8.890;2022-08-01T07:59:50;4.47;;;1.27;;
26303;SDS011;57113;48.680;8.890;2022-08-01T08:02:15;1.60;;;1.15;;
26303;SDS011;57113;48.680;8.890;2022-08-01T08:04:41;2.58;;;1.30;;
26303;SDS011;57113;48.680;8.890;2022-08-01T08:07:07;1.98;;;1.40;;
26303;SDS011;57113;48.680;8.890;2022-08-01T08:09:33;2.33;;;1.30;;
26303;SDS011;57113;48.680;8.890;2022-08-01T08:11:59;2.28;;;1.08;;
26303;SDS011;57113;48.680;8.890;2022-08-01T08:14:24;2.55;;;1.25;;
26303;SDS011;57113;48.680;8.890;2022-08-01T08:16:50;1.42;;;1.10;;
26303;SDS011;57113;48.680;8.890;2022-08-01T08:19:16;3.28;;;1.40;;
26303;SDS011;57113;48.680;8.890;2022-08-01T08:21:42;1.42;;;1.20;;
26303;SDS011;57113;48.680;8.890;2022-08-01T08:24:08;1.65;;;1.33;;
26303;SDS011;57113;48.680;8.890;2022-08-01T08:26:51;2.75;;;1.15;;
26303;SDS011;57113;48.680;8.890;2022-08-01T08:29:21;2.28;;;1.30;;
26303;SDS011;57113;48.680;8.890;2022-08-01T08:31:47;1.80;;;1.20;;
26303;SDS011;57113;48.680;8.890;2022-08-01T08:34:13;1.10;;;1.00;;
26303;SDS011;57113;48.680;8.890;2022-08-01T08:36:39;2.72;;;1.17;;
26303;SDS011;57113;48.680;8.890;2022-08-01T08:39:05;1.73;;;1.13;;
26303;SDS011;57113;48.680;8.890;2022-08-01T08:41:31;2.35;;;1.20;;
26303;SDS011;57113;48.680;8.890;2022-08-01T08:43:57;1.90;;;1.35;;
26303;SDS011;57113;48.680;8.890;2022-08-01T08:46:25;4.03;;;1.35;;
26303;SDS011;57113;48.680;8.890;2022-08-01T08:48:52;6.85;;;2.03;;
26303;SDS011;57113;48.680;8.890;2022-08-01T08:51:19;4.43;;;1.50;;
26303;SDS011;57113;48.680;8.890;2022-08-01T08:53:45;2.55;;;1.60;;
26303;SDS011;57113;48.680;8.890;2022-08-01T08:56:12;3.38;;;1.75;;
26303;SDS011;57113;48.680;8.890;2022-08-01T08:58:43;2.75;;;1.98;;
26303;SDS011;57113;48.680;8.890;2022-08-01T09:01:11;2.35;;;1.88;;
26303;SDS011;57113;48.680;8.890;2022-08-01T09:03:38;2.28;;;1.67;;
26303;SDS011;57113;48.680;8.890;2022-08-01T09:06:04;2.83;;;1.70;;
26303;SDS011;57113;48.680;8.890;2022-08-01T09:08:32;3.63;;;1.77;;
26303;SDS011;57113;48.680;8.890;2022-08-01T09:10:58;2.83;;;1.70;;
26303;SDS011;57113;48.680;8.890;2022-08-01T09:13:24;3.15;;;1.75;;
26303;SDS011;57113;48.680;8.890;2022-08-01T09:15:53;5.97;;;1.67;;
26303;SDS011;57113;48.680;8.890;2022-08-01T09:18:30;2.00;;;1.73;;
26303;SDS011;57113;48.680;8.890;2022-08-01T09:21:13;2.05;;;1.45;;
26303;SDS011;57113;48.680;8.890;2022-08-01T09:23:47;2.63;;;1.80;;
26303;SDS011;57113;48.680;8.890;2022-08-01T09:26:16;5.38;;;1.63;;
26303;SDS011;57113;48.680;8.890;2022-08-01T09:28:44;2.72;;;1.40;;
26303;SDS011;57113;48.680;8.890;2022-08-01T09:31:12;2.40;;;1.58;;
26303;SDS011;57113;48.680;8.890;2022-08-01T09:36:19;1.90;;;1.58;;
26303;SDS011;57113;48.680;8.890;2022-08-01T09:38:45;2.63;;;1.55;;
26303;SDS011;57113;48.680;8.890;2022-08-01T09:41:11;1.95;;;1.67;;
26303;SDS011;57113;48.680;8.890;2022-08-01T09:43:37;3.00;;;1.73;;
26303;SDS011;57113;48.680;8.890;2022-08-01T09:46:10;1.80;;;1.50;;
26303;SDS011;57113;48.680;8.890;2022-08-01T09:48:38;2.00;;;1.58;;
26303;SDS011;57113;48.680;8.890;2022-08-01T09:51:27;3.47;;;1.67;;
26303;SDS011;57113;48.680;8.890;2022-08-01T09:54:04;3.95;;;1.50;;
26303;SDS011;57113;48.680;8.890;2022-08-01T09:56:38;3.58;;;1.60;;
26303;SDS011;57113;48.680;8.890;2022-08-01T09:59:05;1.45;;;1.35;;
26303;SDS011;57113;48.680;8.890;2022-08-01T10:01:47;1.63;;;1.35;;
26303;SDS011;57113;48.680;8.890;2022-08-01T10:04:18;2.05;;;1.60;;
26303;SDS011;57113;48.680;8.890;2022-08-01T10:06:46;1.88;;;1.38;;
26303;SDS011;57113;48.680;8.890;2022-08-01T10:09:26;2.08;;;1.80;;
26303;SDS011;57113;48.680;8.890;2022-08-01T10:11:53;1.70;;;1.40;;
26303;SDS011;57113;48.680;8.890;2022-08-01T10:14:21;3.30;;;1.25;;
26303;SDS011;57113;48.680;8.890;2022-08-01T10:16:49;1.80;;;1.58;;
26303;SDS011;57113;48.680;8.890;2022-08-01T10:19:18;3.20;;;1.63;;
26303;SDS011;57113;48.680;8.890;2022-08-01T10:21:46;3.38;;;1.50;;
26303;SDS011;57113;48.680;8.890;2022-08-01T10:24:14;2.35;;;1.45;;
26303;SDS011;57113;48.680;8.890;2022-08-01T10:26:42;2.03;;;1.67;;
26303;SDS011;57113;48.680;8.890;2022-08-01T10:29:10;1.63;;;1.38;;
26303;SDS011;57113;48.680;8.890;2022-08-01T10:31:38;2.47;;;1.70;;
26303;SDS011;57113;48.680;8.890;2022-08-01T10:34:04;1.75;;;1.60;;
26303;SDS011;57113;48.680;8.890;2022-08-01T10:36:30;2.30;;;1.60;;
26303;SDS011;57113;48.680;8.890;2022-08-01T10:38:57;2.20;;;2.00;;
26303;SDS011;57113;48.680;8.890;2022-08-01T10:41:24;2.35;;;1.38;;
26303;SDS011;57113;48.680;8.890;2022-08-01T10:43:51;1.40;;;1.30;;
26303;SDS011;57113;48.680;8.890;2022-08-01T10:46:18;1.58;;;1.48;;
26303;SDS011;57113;48.680;8.890;2022-08-01T10:48:47;1.70;;;1.60;;
26303;SDS011;57113;48.680;8.890;2022-08-01T10:51:19;1.60;;;1.50;;
26303;SDS011;57113;48.680;8.890;2022-08-01T10:53:47;2.05;;;1.65;;
26303;SDS011;57113;48.680;8.890;2022-08-01T10:56:15;2.58;;;1.60;;
26303;SDS011;57113;48.680;8.890;2022-08-01T10:58:42;2.20;;;1.58;;
26303;SDS011;57113;48.680;8.890;2022-08-01T11:04:06;2.17;;;1.60;;
26303;SDS011;57113;48.680;8.890;2022-08-01T11:16:46;1.60;;;1.50;;
26303;SDS011;57113;48.680;8.890;2022-08-01T11:19:12;1.92;;;1.70;;
26303;SDS011;57113;48.680;8.890;2022-08-01T11:29:42;2.03;;;1.77;;
26303;SDS011;57113;48.680;8.890;2022-08-01T11:32:23;4.15;;;1.70;;
26303;SDS011;57113;48.680;8.890;2022-08-01T11:34:54;1.60;;;1.50;;
26303;SDS011;57113;48.680;8.890;2022-08-01T11:37:24;2.30;;;1.77;;
26303;SDS011;57113;48.680;8.890;2022-08-01T11:42:44;1.83;;;1.70;;
26303;SDS011;57113;48.680;8.890;2022-08-01T11:45:10;1.83;;;1.30;;
26303;SDS011;57113;48.680;8.890;2022-08-01T11:50:16;1.60;;;1.50;;
26303;SDS011;57113;48.680;8.890;2022-08-01T11:52:57;2.00;;;1.80;;
26303;SDS011;57113;48.680;8.890;2022-08-01T11:55:28;2.10;;;1.80;;
26303;SDS011;57113;48.680;8.890;2022-08-01T12:00:30;1.50;;;1.40;;
26303;SDS011;57113;48.680;8.890;2022-08-01T12:02:58;2.15;;;1.73;;
26303;SDS011;57113;48.680;8.890;2022-08-01T12:05:31;1.48;;;1.38;;
26303;SDS011;57113;48.680;8.890;2022-08-01T12:07:58;1.75;;;1.65;;
26303;SDS011;57113;48.680;8.890;2022-08-01T12:10:29;1.90;;;1.80;;
26303;SDS011;57113;48.680;8.890;2022-08-01T12:13:02;1.88;;;1.65;;
26303;SDS011;57113;48.680;8.890;2022-08-01T12:15:29;2.65;;;1.60;;
26303;SDS011;57113;48.680;8.890;2022-08-01T12:17:58;1.70;;;1.60;;
26303;SDS011;57113;48.680;8.890;2022-08-01T12:20:29;1.75;;;1.58;;
26303;SDS011;57113;48.680;8.890;2022-08-01T12:22:57;2.95;;;1.60;;
26303;SDS011;57113;48.680;8.890;2022-08-01T12:25:24;1.88;;;1.77;;
26303;SDS011;57113;48.680;8.890;2022-08-01T12:27:50;1.55;;;1.45;;
26303;SDS011;57113;48.680;8.890;2022-08-01T12:30:18;2.05;;;1.85;;
26303;SDS011;57113;48.680;8.890;2022-08-01T12:32:47;1.58;;;1.48;;
26303;SDS011;57113;48.680;8.890;2022-08-01T12:35:15;2.28;;;1.70;;
26303;SDS011;57113;48.680;8.890;2022-08-01T12:40:30;2.03;;;1.83;;
26303;SDS011;57113;48.680;8.890;2022-08-01T12:42:57;1.77;;;1.60;;
26303;SDS011;57113;48.680;8.890;2022-08-01T12:45:33;1.70;;;1.60;;
26303;SDS011;57113;48.680;8.890;2022-08-01T12:48:09;1.95;;;1.70;;
26303;SDS011;57113;48.680;8.890;2022-08-01T12:50:39;1.73;;;1.63;;
26303;SDS011;57113;48.680;8.890;2022-08-01T12:53:08;2.03;;;1.80;;
26303;SDS011;57113;48.680;8.890;2022-08-01T12:55:43;1.50;;;1.40;;
26303;SDS011;57113;48.680;8.890;2022-08-01T12:58:11;1.88;;;1.67;;
26303;SDS011;57113;48.680;8.890;2022-08-01T13:00:38;3.28;;;1.85;;
26303;SDS011;57113;48.680;8.890;2022-08-01T13:03:08;2.05;;;1.70;;
26303;SDS011;57113;48.680;8.890;2022-08-01T13:08:22;1.90;;;1.70;;
26303;SDS011;57113;48.680;8.890;2022-08-01T13:11:00;2.10;;;1.80;;
26303;SDS011;57113;48.680;8.890;2022-08-01T13:13:34;1.75;;;1.63;;
26303;SDS011;57113;48.680;8.890;2022-08-01T13:16:03;1.92;;;1.73;;
26303;SDS011;57113;48.680;8.890;2022-08-01T13:18:31;2.15;;;1.88;;
26303;SDS011;57113;48.680;8.890;2022-08-01T13:21:17;2.17;;;1.98;;
26303;SDS011;57113;48.680;8.890;2022-08-01T13:26:58;1.88;;;1.67;;
26303;SDS011;57113;48.680;8.890;2022-08-01T13:31:54;1.83;;;1.65;;
26303;SDS011;57113;48.680;8.890;2022-08-01T13:34:29;1.77;;;1.67;;
26303;SDS011;57113;48.680;8.890;2022-08-01T13:36:59;1.73;;;1.63;;
26303;SDS011;57113;48.680;8.890;2022-08-01T13:39:26;2.00;;;1.80;;
26303;SDS011;57113;48.680;8.890;2022-08-01T13:42:05;2.38;;;1.88;;
26303;SDS011;57113;48.680;8.890;2022-08-01T13:44:34;2.28;;;1.85;;
26303;SDS011;57113;48.680;8.890;2022-08-01T13:47:01;2.20;;;2.00;;
26303;SDS011;57113;48.680;8.890;2022-08-01T13:49:27;1.80;;;1.60;;
26303;SDS011;57113;48.680;8.890;2022-08-01T13:51:53;2.10;;;1.80;;
26303;SDS011;57113;48.680;8.890;2022-08-01T13:54:19;2.08;;;1.75;;
26303;SDS011;57113;48.680;8.890;2022-08-01T13:56:45;2.15;;;1.95;;
26303;SDS011;57113;48.680;8.890;2022-08-01T13:59:11;2.45;;;1.92;;
26303;SDS011;57113;48.680;8.890;2022-08-01T14:01:37;2.03;;;1.92;;
26303;SDS011;57113;48.680;8.890;2022-08-01T14:04:03;1.92;;;1.73;;
26303;SDS011;57113;48.680;8.890;2022-08-01T14:06:29;2.28;;;1.73;;
26303;SDS011;57113;48.680;8.890;2022-08-01T14:08:56;3.53;;;1.95;;
26303;SDS011;57113;48.680;8.890;2022-08-01T14:11:21;2.22;;;1.70;;
26303;SDS011;57113;48.680;8.890;2022-08-01T14:13:47;2.08;;;1.85;;
26303;SDS011;57113;48.680;8.890;2022-08-01T14:16:13;1.98;;;1.80;;
26303;SDS011;57113;48.680;8.890;2022-08-01T14:18:38;2.17;;;1.60;;
26303;SDS011;57113;48.680;8.890;2022-08-01T14:21:04;1.77;;;1.55;;
26303;SDS011;57113;48.680;8.890;2022-08-01T14:23:30;1.83;;;1.60;;
26303;SDS011;57113;48.680;8.890;2022-08-01T14:25:55;2.88;;;1.90;;
26303;SDS011;57113;48.680;8.890;2022-08-01T14:28:21;2.10;;;1.73;;
26303;SDS011;57113;48.680;8.890;2022-08-01T14:30:48;2.47;;;1.92;;
26303;SDS011;57113;48.680;8.890;2022-08-01T14:33:14;1.75;;;1.65;;
26303;SDS011;57113;48.680;8.890;2022-08-01T14:35:40;1.88;;;1.77;;
26303;SDS011;57113;48.680;8.890;2022-08-01T14:38:06;1.83;;;1.70;;
26303;SDS011;57113;48.680;8.890;2022-08-01T14:40:32;1.90;;;1.80;;
26303;SDS011;57113;48.680;8.890;2022-08-01T14:42:59;3.63;;;1.85;;
26303;SDS011;57113;48.680;8.890;2022-08-01T14:45:26;1.58;;;1.48;;
26303;SDS011;57113;48.680;8.890;2022-08-01T14:47:52;1.77;;;1.67;;
26303;SDS011;57113;48.680;8.890;2022-08-01T14:50:18;2.13;;;1.92;;
26303;SDS011;57113;48.680;8.890;2022-08-01T14:52:44;2.30;;;2.10;;
26303;SDS011;57113;48.680;8.890;2022-08-01T14:55:10;1.65;;;1.55;;
26303;SDS011;57113;48.680;8.890;2022-08-01T14:57:37;2.20;;;2.00;;
26303;SDS011;57113;48.680;8.890;2022-08-01T15:00:04;2.00;;;1.80;;
26303;SDS011;57113;48.680;8.890;2022-08-01T15:02:32;2.35;;;2.15;;
26303;SDS011;57113;48.680;8.890;2022-08-01T15:04:58;2.30;;;1.98;;
26303;SDS011;57113;48.680;8.890;2022-08-01T15:07:24;2.17;;;1.98;;
26303;SDS011;57113;48.680;8.890;2022-08-01T15:09:49;2.17;;;1.98;;
26303;SDS011;57113;48.680;8.890;2022-08-01T15:12:15;2.35;;;1.73;;
26303;SDS011;57113;48.680;8.890;2022-08-01T15:14:41;2.17;;;1.67;;
26303;SDS011;57113;48.680;8.890;2022-08-01T15:17:19;2.55;;;1.83;;
26303;SDS011;57113;48.680;8.890;2022-08-01T15:19:47;2.42;;;1.65;;
26303;SDS011;57113;48.680;8.890;2022-08-01T15:22:14;2.20;;;2.00;;
26303;SDS011;57113;48.680;8.890;2022-08-01T15:24:41;2.20;;;1.80;;
26303;SDS011;57113;48.680;8.890;2022-08-01T15:27:07;1.70;;;1.60;;
26303;SDS011;57113;48.680;8.890;2022-08-01T15:29:33;1.80;;;1.70;;
26303;SDS011;57113;48.680;8.890;2022-08-01T15:31:59;2.05;;;1.85;;
26303;SDS011;57113;48.680;8.890;2022-08-01T15:34:26;2.13;;;1.90;;
26303;SDS011;57113;48.680;8.890;2022-08-01T15:36:51;2.05;;;1.85;;
26303;SDS011;57113;48.680;8.890;2022-08-01T15:39:17;2.38;;;2.17;;
26303;SDS011;57113;48.680;8.890;2022-08-01T15:41:43;2.30;;;2.00;;
26303;SDS011;57113;48.680;8.890;2022-08-01T15:44:08;2.63;;;2.13;;
26303;SDS011;57113;48.680;8.890;2022-08-01T15:46:34;1.90;;;1.63;;
26303;SDS011;57113;48.680;8.890;2022-08-01T15:49:01;1.77;;;1.67;;